Time,TemperatureF,DewpointF,PressureIn,WindDirection,WindDirectionDegrees,WindSpeedMPH,WindSpeedGustMPH,Humidity,HourlyPrecipIn,Conditions,Clouds,dailyrainin,SolarRadiationWatts/m^2,SoftwareType,DateUTC
2013-04-05 00:01:00,47.8,39.0,31.25,South,174,0.0,2.0,72,0.00,,,0.00,0,weatherlink.com 1.10,2013-04-05 06:01:00,
2013-04-05 00:17:00,47.4,40.0,31.25,South,175,9.0,11.0,74,0.00,,,0.00,0,weatherlink.com 1.10,2013-04-05 06:17:00,
2013-04-05 00:32:00,47.1,40.0,31.24,South,181,6.0,11.0,75,0.00,,,0.00,0,weatherlink.com 1.10,2013-04-05 06:32:00,
2013-04-05 00:47:00,47.1,40.0,31.24,SSE,155,14.0,15.0,76,0.00,,,0.00,0,weatherlink.com 1.10,2013-04-05 06:47:00,
2013-04-05 01:02:00,47.6,39.0,31.24,South,181,8.0,13.0,73,0.00,,,0.00,0,weatherlink.com 1.10,2013-04-05 07:02:00,
2013-04-05 01:17:00,48.1,39.0,31.24,SSE,153,13.0,16.0,71,0.00,,,0.00,0,weatherlink.com 1.10,2013-04-05 07:17:00,
2013-04-05 01:32:00,48.4,39.0,31.24,SSE,156,13.0,18.0,71,0.00,,,0.00,0,weatherlink.com 1.10,2013-04-05 07:32:00,
2013-04-05 01:47:00,48.0,40.0,31.24,South,178,14.0,19.0,73,0.00,,,0.00,0,weatherlink.com 1.10,2013-04-05 07:47:00,
2013-04-05 02:02:00,48.0,40.0,31.23,South,173,14.0,15.0,73,0.00,,,0.00,0,weatherlink.com 1.10,2013-04-05 08:02:00,
2013-04-05 02:17:00,47.4,40.0,31.24,SSW,213,8.0,13.0,74,0.00,,,0.00,0,weatherlink.com 1.10,2013-04-05 08:17:00,
2013-04-05 02:32:00,44.7,39.0,31.26,NNE,24,2.0,8.0,81,0.00,,,0.00,0,weatherlink.com 1.10,2013-04-05 08:32:00,
2013-04-05 02:47:00,45.1,38.0,31.27,NNW,344,6.0,16.0,76,0.00,,,0.00,0,weatherlink.com 1.10,2013-04-05 08:47:00,
2013-04-05 03:02:00,45.2,38.0,31.28,North,5,6.0,13.0,75,0.00,,,0.00,0,weatherlink.com 1.10,2013-04-05 09:02:00,
2013-04-05 03:17:00,45.0,36.0,31.29,NNE,33,9.0,14.0,71,0.00,,,0.00,0,weatherlink.com 1.10,2013-04-05 09:17:00,
2013-04-05 03:32:00,44.1,36.0,31.30,NW,325,10.0,11.0,74,0.00,,,0.00,0,weatherlink.com 1.10,2013-04-05 09:32:00,
2013-04-05 03:47:00,43.5,35.0,31.30,NW,321,0.0,10.0,73,0.00,,,0.00,0,weatherlink.com 1.10,2013-04-05 09:47:00,
2013-04-05 04:02:00,43.3,35.0,31.32,North,360,4.0,13.0,72,0.00,,,0.00,0,weatherlink.com 1.10,2013-04-05 10:02:00,
2013-04-05 04:17:00,42.9,34.0,31.32,NW,318,6.0,14.0,72,0.00,,,0.00,0,weatherlink.com 1.10,2013-04-05 10:17:00,
2013-04-05 04:32:00,43.0,35.0,31.30,NNE,22,3.0,3.0,72,0.00,,,0.00,0,weatherlink.com 1.10,2013-04-05 10:32:00,
2013-04-05 04:47:00,42.4,34.0,31.31,NE,49,0.0,4.0,73,0.00,,,0.00,0,weatherlink.com 1.10,2013-04-05 10:47:00,
2013-04-05 05:02:00,42.9,34.0,31.32,West,272,0.0,3.0,70,0.00,,,0.00,0,weatherlink.com 1.10,2013-04-05 11:02:00,
2013-04-05 05:17:00,42.7,34.0,31.30,SW,236,0.0,5.0,71,0.00,,,0.00,0,weatherlink.com 1.10,2013-04-05 11:17:00,
2013-04-05 05:32:00,42.3,34.0,31.32,NW,305,0.0,2.0,72,0.00,,,0.00,0,weatherlink.com 1.10,2013-04-05 11:32:00,
2013-04-05 05:47:00,42.0,34.0,31.32,NE,46,2.0,2.0,73,0.00,,,0.00,0,weatherlink.com 1.10,2013-04-05 11:47:00,
2013-04-05 06:02:00,41.4,34.0,31.33,NNE,12,0.0,2.0,75,0.00,,,0.00,0,weatherlink.com 1.10,2013-04-05 12:02:00,
2013-04-05 06:17:00,41.9,34.0,31.33,NNE,12,0.0,1.0,73,0.00,,,0.00,0,weatherlink.com 1.10,2013-04-05 12:17:00,
2013-04-05 06:32:00,41.9,34.0,31.33,NNE,12,0.0,2.0,74,0.00,,,0.00,0,weatherlink.com 1.10,2013-04-05 12:32:00,
2013-04-05 06:47:00,42.4,34.0,31.33,East,90,2.0,9.0,73,0.00,,,0.00,0,weatherlink.com 1.10,2013-04-05 12:47:00,
2013-04-05 07:02:00,42.3,34.0,31.33,NNE,22,0.0,5.0,73,0.00,,,0.00,0,weatherlink.com 1.10,2013-04-05 13:02:00,
2013-04-05 07:17:00,42.3,34.0,31.33,ESE,111,7.0,9.0,73,0.00,,,0.00,12,weatherlink.com 1.10,2013-04-05 13:17:00,
2013-04-05 07:32:00,42.3,34.0,31.33,SSE,161,3.0,9.0,72,0.00,,,0.00,26,weatherlink.com 1.10,2013-04-05 13:32:00,
2013-04-05 07:47:00,42.0,34.0,31.33,SSE,148,11.0,12.0,73,0.00,,,0.00,44,weatherlink.com 1.10,2013-04-05 13:47:00,
2013-04-05 08:02:00,42.1,34.0,31.33,SE,140,10.0,13.0,73,0.00,,,0.00,69,weatherlink.com 1.10,2013-04-05 14:02:00,
2013-04-05 08:17:00,42.5,34.0,31.33,SE,139,0.0,4.0,72,0.00,,,0.00,90,weatherlink.com 1.10,2013-04-05 14:17:00,
2013-04-05 08:33:00,42.6,34.0,31.34,SE,136,12.0,14.0,71,0.00,,,0.00,123,weatherlink.com 1.10,2013-04-05 14:33:00,
2013-04-05 09:03:00,43.1,34.0,31.34,SSE,159,8.0,17.0,70,0.00,,,0.00,188,weatherlink.com 1.10,2013-04-05 15:03:00,
2013-04-05 09:18:00,43.2,34.0,31.34,SSE,159,11.0,15.0,70,0.00,,,0.00,171,weatherlink.com 1.10,2013-04-05 15:18:00,
2013-04-05 09:33:00,42.8,34.0,31.34,South,181,9.0,14.0,72,0.00,,,0.00,142,weatherlink.com 1.10,2013-04-05 15:33:00,
2013-04-05 09:48:00,43.6,35.0,31.34,SSE,163,7.0,12.0,73,0.00,,,0.00,306,weatherlink.com 1.10,2013-04-05 15:48:00,
2013-04-05 10:03:00,44.3,35.0,31.34,South,170,10.0,16.0,70,0.00,,,0.00,156,weatherlink.com 1.10,2013-04-05 16:03:00,
2013-04-05 10:18:00,44.0,35.0,31.34,SSE,155,8.0,12.0,72,0.00,,,0.00,144,weatherlink.com 1.10,2013-04-05 16:18:00,
2013-04-05 10:33:00,43.5,36.0,31.34,SE,137,9.0,13.0,74,0.00,,,0.00,148,weatherlink.com 1.10,2013-04-05 16:33:00,
2013-04-05 10:48:00,43.5,35.0,31.35,SSE,161,8.0,9.0,73,0.00,,,0.00,109,weatherlink.com 1.10,2013-04-05 16:48:00,
2013-04-05 11:03:00,44.0,35.0,31.35,SSE,160,3.0,13.0,72,0.00,,,0.00,120,weatherlink.com 1.10,2013-04-05 17:03:00,
2013-04-05 11:18:00,44.5,36.0,31.35,SSE,150,6.0,10.0,73,0.00,,,0.00,211,weatherlink.com 1.10,2013-04-05 17:18:00,
2013-04-05 11:33:00,44.9,36.0,31.35,SSW,194,0.0,8.0,70,0.00,,,0.00,239,weatherlink.com 1.10,2013-04-05 17:33:00,
2013-04-05 11:48:00,46.2,37.0,31.34,SSE,156,3.0,13.0,70,0.00,,,0.00,274,weatherlink.com 1.10,2013-04-05 17:48:00,
2013-04-05 12:03:00,46.9,36.0,31.34,South,187,8.0,10.0,67,0.00,,,0.00,352,weatherlink.com 1.10,2013-04-05 18:03:00,
2013-04-05 12:19:00,46.8,35.0,31.34,South,185,12.0,15.0,63,0.00,,,0.00,193,weatherlink.com 1.10,2013-04-05 18:19:00,
2013-04-05 12:33:00,46.3,34.0,31.33,South,186,8.0,17.0,62,0.00,,,0.00,193,weatherlink.com 1.10,2013-04-05 18:33:00,
2013-04-05 12:48:00,47.5,34.0,31.33,SW,215,0.0,11.0,61,0.00,,,0.00,292,weatherlink.com 1.10,2013-04-05 18:48:00,
2013-04-05 13:03:00,49.1,34.0,31.32,South,189,15.0,15.0,56,0.00,,,0.00,248,weatherlink.com 1.10,2013-04-05 19:03:00,
2013-04-05 13:18:00,50.4,34.0,31.32,South,183,8.0,17.0,54,0.00,,,0.00,316,weatherlink.com 1.10,2013-04-05 19:18:00,
2013-04-05 13:33:00,51.2,32.0,31.31,SSW,201,16.0,19.0,49,0.00,,,0.00,301,weatherlink.com 1.10,2013-04-05 19:33:00,
2013-04-05 13:48:00,51.8,33.0,31.31,West,269,2.0,14.0,49,0.00,,,0.00,373,weatherlink.com 1.10,2013-04-05 19:48:00,
2013-04-05 14:03:00,50.9,33.0,31.30,WNW,282,6.0,12.0,50,0.00,,,0.00,679,weatherlink.com 1.10,2013-04-05 20:03:00,
2013-04-05 14:18:00,51.4,31.0,31.30,SSW,194,12.0,18.0,45,0.00,,,0.00,949,weatherlink.com 1.10,2013-04-05 20:18:00,
2013-04-05 14:33:00,52.0,33.0,31.31,West,262,9.0,16.0,48,0.00,,,0.00,288,weatherlink.com 1.10,2013-04-05 20:33:00,
2013-04-05 14:48:00,50.9,32.0,31.31,WSW,250,5.0,16.0,48,0.00,,,0.00,330,weatherlink.com 1.10,2013-04-05 20:48:00,
2013-04-05 15:03:00,49.6,32.0,31.31,SSW,206,8.0,14.0,52,0.00,,,0.00,329,weatherlink.com 1.10,2013-04-05 21:03:00,
2013-04-05 15:18:00,48.5,33.0,31.33,NW,322,21.0,21.0,55,0.00,,,0.00,190,weatherlink.com 1.10,2013-04-05 21:18:00,
2013-04-05 15:33:00,47.5,33.0,31.33,NNW,348,7.0,12.0,57,0.00,,,0.00,221,weatherlink.com 1.10,2013-04-05 21:33:00,
2013-04-05 15:48:00,48.1,32.0,31.34,NNW,340,11.0,23.0,54,0.00,,,0.00,360,weatherlink.com 1.10,2013-04-05 21:48:00,
2013-04-05 16:03:00,48.0,32.0,31.34,NW,317,5.0,21.0,54,0.00,,,0.00,251,weatherlink.com 1.10,2013-04-05 22:03:00,
2013-04-05 16:18:00,48.6,31.0,31.34,SSW,205,9.0,16.0,52,0.00,,,0.00,253,weatherlink.com 1.10,2013-04-05 22:18:00,
2013-04-05 16:33:00,49.5,31.0,31.34,WSW,255,8.0,16.0,49,0.00,,,0.00,185,weatherlink.com 1.10,2013-04-05 22:33:00,
2013-04-05 16:48:00,49.7,32.0,31.34,NNE,13,9.0,16.0,50,0.00,,,0.00,278,weatherlink.com 1.10,2013-04-05 22:48:00,
2013-04-05 17:03:00,49.2,33.0,31.35,NW,324,12.0,19.0,53,0.00,,,0.00,269,weatherlink.com 1.10,2013-04-05 23:03:00,
2013-04-05 17:18:00,48.7,33.0,31.36,NNW,333,8.0,19.0,54,0.00,,,0.00,244,weatherlink.com 1.10,2013-04-05 23:18:00,
2013-04-05 17:33:00,48.9,33.0,31.36,NNW,333,11.0,16.0,55,0.00,,,0.00,206,weatherlink.com 1.10,2013-04-05 23:33:00,
2013-04-05 17:48:00,48.6,33.0,31.37,NW,312,13.0,19.0,55,0.00,,,0.00,195,weatherlink.com 1.10,2013-04-05 23:48:00,
2013-04-05 18:03:00,50.1,33.0,31.37,NW,304,15.0,21.0,53,0.00,,,0.00,548,weatherlink.com 1.10,2013-04-06 00:03:00,
2013-04-05 18:18:00,49.7,33.0,31.37,NNW,341,10.0,16.0,53,0.00,,,0.00,399,weatherlink.com 1.10,2013-04-06 00:18:00,
2013-04-05 18:33:00,47.7,33.0,31.38,NW,324,8.0,12.0,58,0.00,,,0.00,77,weatherlink.com 1.10,2013-04-06 00:33:00,
2013-04-05 19:33:00,45.1,33.0,31.40,North,350,5.0,13.0,63,0.00,,,0.00,40,weatherlink.com 1.10,2013-04-06 01:33:00,
2013-04-05 19:48:00,44.4,33.0,31.41,NW,311,9.0,11.0,65,0.00,,,0.00,19,weatherlink.com 1.10,2013-04-06 01:48:00,
2013-04-05 20:03:00,44.1,33.0,31.41,NW,325,5.0,11.0,66,0.00,,,0.00,7,weatherlink.com 1.10,2013-04-06 02:03:00,
2013-04-05 20:18:00,43.8,33.0,31.40,WNW,301,10.0,12.0,65,0.00,,,0.00,0,weatherlink.com 1.10,2013-04-06 02:18:00,
2013-04-05 20:33:00,43.9,33.0,31.41,North,9,7.0,17.0,65,0.00,,,0.00,0,weatherlink.com 1.10,2013-04-06 02:33:00,
2013-04-05 21:03:00,43.3,33.0,31.43,NW,313,8.0,9.0,68,0.00,,,0.00,0,weatherlink.com 1.10,2013-04-06 03:03:00,
2013-04-05 21:18:00,43.1,34.0,31.43,West,271,3.0,9.0,69,0.00,,,0.00,0,weatherlink.com 1.10,2013-04-06 03:18:00,
2013-04-05 21:49:00,41.7,33.0,31.44,SW,225,0.0,6.0,72,0.00,,,0.00,0,weatherlink.com 1.10,2013-04-06 03:49:00,
2013-04-05 22:19:00,40.3,34.0,31.43,SE,146,6.0,8.0,77,0.00,,,0.00,0,weatherlink.com 1.10,2013-04-06 04:19:00,
2013-04-05 22:34:00,40.7,34.0,31.43,SE,142,2.0,7.0,76,0.00,,,0.00,0,weatherlink.com 1.10,2013-04-06 04:34:00,
2013-04-05 22:49:00,41.7,33.0,31.43,SSE,166,0.0,7.0,71,0.00,,,0.00,0,weatherlink.com 1.10,2013-04-06 04:49:00,
2013-04-05 23:19:00,42.9,34.0,31.43,SE,125,10.0,14.0,72,0.00,,,0.00,0,weatherlink.com 1.10,2013-04-06 05:19:00,
2013-04-05 23:34:00,42.3,35.0,31.44,SSE,165,7.0,18.0,75,0.00,,,0.00,0,weatherlink.com 1.10,2013-04-06 05:34:00,
2013-04-05 23:49:00,42.2,34.0,31.44,SE,125,12.0,15.0,74,0.00,,,0.00,0,weatherlink.com 1.10,2013-04-06 05:49:00,